createdAt,value
2024-03-15T00:00:57.774Z,9.90
2024-03-15T00:03:26.625Z,9.90
2024-03-15T00:05:54.718Z,9.80
2024-03-15T00:08:22.670Z,9.80
2024-03-15T00:10:50.299Z,9.80
2024-03-15T00:13:18.017Z,9.80
2024-03-15T00:15:45.976Z,9.80
2024-03-15T00:18:13.780Z,9.70
2024-03-15T00:20:41.527Z,9.70
2024-03-15T00:23:09.468Z,9.70
2024-03-15T00:25:37.384Z,9.70
2024-03-15T00:28:04.925Z,9.70
2024-03-15T00:30:32.869Z,9.70
2024-03-15T00:33:00.613Z,9.70
2024-03-15T00:35:28.483Z,9.80
2024-03-15T00:37:56.011Z,9.80
2024-03-15T00:40:23.752Z,9.80
2024-03-15T00:42:52.228Z,9.70
2024-03-15T00:45:19.937Z,9.80
2024-03-15T00:47:47.688Z,9.80
2024-03-15T00:50:15.190Z,9.90
2024-03-15T00:52:42.779Z,9.90
2024-03-15T00:55:11.958Z,9.90
2024-03-15T00:57:39.888Z,10.00
2024-03-15T01:00:07.942Z,9.90
2024-03-15T01:02:37.234Z,9.90
2024-03-15T01:05:06.856Z,9.90
2024-03-15T01:07:35.314Z,9.80
2024-03-15T01:10:03.106Z,9.80
2024-03-15T01:12:31.017Z,9.80
2024-03-15T01:14:58.709Z,9.70
2024-03-15T01:17:27.042Z,9.70
2024-03-15T01:19:54.929Z,9.70
2024-03-15T01:22:22.754Z,9.70
2024-03-15T01:24:50.641Z,9.70
2024-03-15T01:27:18.488Z,9.70
2024-03-15T01:29:46.084Z,9.60
2024-03-15T01:32:13.951Z,9.60
2024-03-15T01:34:41.413Z,9.60
2024-03-15T01:37:09.131Z,9.50
2024-03-15T01:39:37.365Z,9.50
2024-03-15T01:42:05.111Z,9.40
2024-03-15T01:44:59.467Z,9.40
2024-03-15T01:47:28.736Z,9.40
2024-03-15T01:49:57.535Z,9.40
2024-03-15T01:52:25.566Z,9.40
2024-03-15T01:54:53.233Z,9.40
2024-03-15T01:57:20.987Z,9.40
2024-03-15T01:59:48.923Z,9.40
2024-03-15T02:02:16.605Z,9.40
2024-03-15T02:05:04.476Z,9.40
2024-03-15T02:07:32.243Z,9.40
2024-03-15T02:10:00.720Z,9.40
2024-03-15T02:12:28.459Z,9.40
2024-03-15T02:14:56.182Z,9.40
2024-03-15T02:17:24.057Z,9.40
2024-03-15T02:19:51.711Z,9.40
2024-03-15T02:22:19.281Z,9.40
2024-03-15T02:24:47.358Z,9.40
2024-03-15T02:27:15.459Z,9.40
2024-03-15T02:29:43.187Z,9.40
2024-03-15T02:32:11.395Z,9.40
2024-03-15T02:34:39.482Z,9.40
2024-03-15T02:37:10.926Z,9.40
2024-03-15T02:39:42.061Z,9.50
2024-03-15T02:42:09.609Z,9.50
2024-03-15T02:44:38.048Z,9.50
2024-03-15T02:47:06.500Z,9.60
2024-03-15T02:49:34.557Z,9.60
2024-03-15T02:52:02.232Z,9.60
2024-03-15T02:54:30.044Z,9.70
2024-03-15T02:56:57.871Z,9.70
2024-03-15T02:59:25.609Z,9.60
2024-03-15T03:01:53.417Z,9.50
2024-03-15T03:04:21.171Z,9.50
2024-03-15T03:06:49.363Z,9.40
2024-03-15T03:09:18.599Z,9.40
2024-03-15T03:11:47.003Z,9.40
2024-03-15T03:14:15.247Z,9.40
2024-03-15T03:16:43.870Z,9.30
2024-03-15T03:19:11.663Z,9.30
2024-03-15T03:21:39.206Z,9.30
2024-03-15T03:24:07.814Z,9.30
2024-03-15T03:26:35.406Z,9.30
2024-03-15T03:29:03.058Z,9.30
2024-03-15T03:31:30.800Z,9.30
2024-03-15T03:33:58.613Z,9.30
2024-03-15T03:36:27.749Z,9.30
2024-03-15T03:38:55.215Z,9.30
2024-03-15T03:41:22.800Z,9.30
2024-03-15T03:43:50.356Z,9.30
2024-03-15T03:46:19.516Z,9.30
2024-03-15T03:48:47.744Z,9.30
2024-03-15T03:51:15.375Z,9.30
2024-03-15T03:53:43.763Z,9.30
2024-03-15T03:56:11.607Z,9.30
2024-03-15T03:58:39.284Z,9.30
2024-03-15T04:01:07.010Z,9.40
2024-03-15T04:03:34.762Z,9.40
2024-03-15T04:06:02.536Z,9.40
2024-03-15T04:08:29.944Z,9.40
2024-03-15T04:10:57.617Z,9.40
2024-03-15T04:13:25.244Z,9.40
2024-03-15T04:15:55.817Z,9.40
2024-03-15T04:18:23.737Z,9.40
2024-03-15T04:20:53.026Z,9.40
2024-03-15T04:23:23.537Z,9.40
2024-03-15T04:25:51.165Z,9.40
2024-03-15T04:28:19.824Z,9.40
2024-03-15T04:30:47.593Z,9.40
2024-03-15T04:33:15.322Z,9.40
2024-03-15T04:35:42.917Z,9.40
2024-03-15T04:38:10.526Z,9.40
2024-03-15T04:40:37.976Z,9.40
2024-03-15T04:43:05.599Z,9.40
2024-03-15T04:45:33.576Z,9.40
2024-03-15T04:48:02.224Z,9.40
2024-03-15T04:50:30.138Z,9.40
2024-03-15T04:52:57.942Z,9.50
2024-03-15T04:55:27.147Z,9.50
2024-03-15T04:57:56.184Z,9.50
2024-03-15T05:00:24.088Z,9.50
2024-03-15T05:02:53.187Z,9.50
2024-03-15T05:05:23.364Z,9.50
2024-03-15T05:07:54.981Z,9.50
2024-03-15T05:10:22.942Z,9.50
2024-03-15T05:12:51.156Z,9.60
2024-03-15T05:15:18.988Z,9.60
2024-03-15T05:17:48.253Z,9.60
2024-03-15T05:20:16.058Z,9.60
2024-03-15T05:22:48.545Z,9.60
2024-03-15T05:25:17.580Z,9.60
2024-03-15T05:27:48.547Z,9.60
2024-03-15T05:30:18.963Z,9.60
2024-03-15T05:32:46.991Z,9.60
2024-03-15T05:35:20.060Z,9.60
2024-03-15T05:37:47.994Z,9.60
2024-03-15T05:40:16.237Z,9.60
2024-03-15T05:42:44.041Z,9.60
2024-03-15T05:45:11.777Z,9.70
2024-03-15T05:47:39.465Z,9.70
2024-03-15T05:50:08.084Z,9.70
2024-03-15T05:52:35.771Z,9.70
2024-03-15T05:55:04.721Z,9.70
2024-03-15T05:57:32.409Z,9.80
2024-03-15T06:00:12.278Z,9.80
2024-03-15T06:02:41.470Z,9.80
2024-03-15T06:05:09.095Z,9.90
2024-03-15T06:07:36.657Z,9.90
2024-03-15T06:10:05.787Z,9.90
2024-03-15T06:12:33.536Z,10.00
2024-03-15T06:15:01.225Z,10.00
2024-03-15T06:17:33.091Z,10.10
2024-03-15T06:20:01.266Z,10.10
2024-03-15T06:22:29.265Z,10.10
2024-03-15T06:24:59.162Z,10.10
2024-03-15T06:27:27.196Z,10.10
2024-03-15T06:29:58.439Z,10.10
2024-03-15T06:32:30.639Z,10.10
2024-03-15T06:35:02.421Z,10.10
2024-03-15T06:37:30.915Z,10.10
2024-03-15T06:39:58.652Z,10.10
2024-03-15T06:42:36.398Z,10.10
2024-03-15T06:45:09.681Z,10.10
2024-03-15T06:47:40.438Z,10.20
2024-03-15T06:50:15.024Z,10.20
2024-03-15T06:52:43.089Z,10.20
2024-03-15T06:55:12.471Z,10.20
2024-03-15T06:57:40.824Z,10.20
2024-03-15T07:00:12.855Z,10.20
2024-03-15T07:02:44.280Z,10.30
2024-03-15T07:05:12.690Z,10.20
2024-03-15T07:07:41.427Z,10.20
2024-03-15T07:10:11.628Z,10.20
2024-03-15T07:12:42.940Z,10.30
2024-03-15T07:15:11.644Z,10.20
2024-03-15T07:17:40.326Z,10.30
2024-03-15T07:20:10.139Z,10.30
2024-03-15T07:22:39.102Z,10.30
2024-03-15T07:25:08.278Z,10.30
2024-03-15T07:27:37.026Z,10.30
2024-03-15T07:30:07.002Z,10.30
2024-03-15T07:32:38.206Z,10.30
2024-03-15T07:35:08.207Z,10.30
2024-03-15T07:37:40.049Z,10.30
2024-03-15T07:40:10.786Z,10.40
2024-03-15T07:42:43.211Z,10.40
2024-03-15T07:45:12.865Z,10.40
2024-03-15T07:47:43.206Z,10.50
2024-03-15T07:50:15.995Z,10.60
2024-03-15T07:52:45.426Z,10.60
2024-03-15T07:55:14.864Z,10.70
2024-03-15T07:57:46.796Z,10.70
2024-03-15T08:00:17.761Z,10.80
2024-03-15T08:02:47.913Z,10.80
2024-03-15T08:05:19.278Z,10.90
2024-03-15T08:07:49.984Z,10.90
2024-03-15T08:10:20.845Z,11.10
2024-03-15T08:12:51.372Z,11.20
2024-03-15T08:15:21.739Z,11.20
2024-03-15T08:17:52.831Z,11.30
2024-03-15T08:20:25.921Z,11.40
2024-03-15T08:22:57.969Z,11.50
2024-03-15T08:25:33.634Z,11.60
2024-03-15T08:28:04.065Z,11.70
2024-03-15T08:30:35.043Z,11.80
2024-03-15T08:33:06.372Z,11.80
2024-03-15T08:35:39.699Z,11.90
2024-03-15T08:38:10.860Z,12.00
2024-03-15T08:40:41.798Z,12.00
2024-03-15T08:43:13.249Z,12.10
2024-03-15T08:45:45.039Z,12.10
2024-03-15T08:48:16.581Z,12.00
2024-03-15T08:50:52.107Z,12.10
2024-03-15T08:53:28.987Z,12.10
2024-03-15T08:56:01.820Z,12.10
2024-03-15T08:58:34.727Z,12.30
2024-03-15T09:01:07.917Z,12.40
2024-03-15T09:03:41.623Z,12.50
2024-03-15T09:06:15.247Z,12.50
2024-03-15T09:08:57.180Z,12.60
2024-03-15T09:11:30.478Z,12.70
2024-03-15T09:14:03.804Z,12.80
2024-03-15T09:16:40.912Z,12.80
2024-03-15T09:19:13.891Z,12.80
2024-03-15T09:21:51.144Z,12.80
2024-03-15T09:24:23.188Z,12.90
2024-03-15T09:26:54.982Z,12.90
2024-03-15T09:29:27.060Z,13.00
2024-03-15T09:32:12.730Z,13.00
2024-03-15T09:34:49.499Z,13.10
2024-03-15T09:37:25.254Z,13.10
2024-03-15T09:39:59.572Z,13.10
2024-03-15T09:42:33.369Z,13.20
2024-03-15T09:45:05.785Z,13.30
2024-03-15T09:47:38.295Z,13.40
2024-03-15T09:50:14.110Z,13.40
2024-03-15T09:52:46.755Z,13.40
2024-03-15T09:55:24.537Z,13.40
2024-03-15T09:57:56.392Z,13.40
2024-03-15T10:00:28.630Z,13.30
2024-03-15T10:02:59.382Z,13.30
2024-03-15T10:05:30.658Z,13.30
2024-03-15T10:08:01.354Z,13.30
2024-03-15T10:10:32.131Z,13.30
2024-03-15T10:13:03.319Z,13.30
2024-03-15T10:15:35.275Z,13.30
2024-03-15T10:18:13.864Z,13.20
2024-03-15T10:20:49.464Z,13.10
2024-03-15T10:23:21.151Z,12.90
2024-03-15T10:25:52.742Z,12.90
2024-03-15T10:28:24.520Z,12.90
2024-03-15T10:30:58.889Z,12.90
2024-03-15T10:33:30.909Z,12.90
2024-03-15T10:36:04.530Z,12.90
2024-03-15T10:38:39.526Z,13.10
2024-03-15T10:41:12.546Z,13.20
2024-03-15T10:43:48.496Z,13.30
2024-03-15T10:46:20.392Z,13.40
2024-03-15T10:48:52.635Z,13.40
2024-03-15T10:51:27.803Z,13.50
2024-03-15T10:54:02.850Z,13.60
2024-03-15T10:56:35.349Z,13.80
2024-03-15T10:59:10.753Z,13.90
2024-03-15T11:01:46.762Z,14.00
2024-03-15T11:04:21.824Z,14.10
2024-03-15T11:06:55.653Z,14.20
2024-03-15T11:09:34.384Z,14.20
2024-03-15T11:12:07.824Z,14.30
2024-03-15T11:14:40.483Z,14.30
2024-03-15T11:17:22.650Z,14.30
2024-03-15T11:19:58.827Z,14.30
2024-03-15T11:22:34.189Z,14.40
2024-03-15T11:25:11.689Z,14.60
2024-03-15T11:28:00.588Z,14.70
2024-03-15T11:30:35.480Z,14.80
2024-03-15T11:33:11.268Z,14.80
2024-03-15T11:35:47.045Z,14.90
2024-03-15T11:38:30.158Z,14.80
2024-03-15T11:41:07.690Z,14.80
2024-03-15T11:43:51.125Z,14.80
2024-03-15T11:46:32.364Z,15.00
2024-03-15T11:49:19.051Z,15.20
2024-03-15T11:52:12.120Z,15.40
2024-03-15T11:54:55.433Z,15.60
2024-03-15T11:57:30.124Z,15.80
2024-03-15T12:00:08.783Z,15.90
2024-03-15T12:02:43.601Z,15.80
2024-03-15T12:05:27.666Z,15.80
2024-03-15T12:08:02.510Z,15.70
2024-03-15T12:10:43.352Z,15.80
2024-03-15T12:13:43.623Z,15.80
2024-03-15T12:16:37.203Z,16.00
2024-03-15T12:19:23.995Z,16.30
2024-03-15T12:22:05.527Z,16.60
2024-03-15T12:24:48.947Z,16.70
2024-03-15T12:27:22.999Z,16.70
2024-03-15T12:29:58.737Z,16.60
2024-03-15T12:32:37.334Z,16.50
2024-03-15T12:35:13.130Z,16.40
2024-03-15T12:37:58.032Z,16.30
2024-03-15T12:40:34.407Z,16.30
2024-03-15T12:43:10.124Z,16.30
2024-03-15T12:45:47.765Z,16.30
2024-03-15T12:48:27.932Z,16.20
2024-03-15T12:51:07.748Z,16.30
2024-03-15T12:53:55.988Z,16.30
2024-03-15T12:56:45.606Z,16.30
2024-03-15T12:59:25.036Z,16.50
2024-03-15T13:02:13.106Z,16.80
2024-03-15T13:05:03.083Z,16.90
2024-03-15T13:07:53.182Z,17.10
2024-03-15T13:10:33.396Z,17.20
2024-03-15T13:13:17.139Z,17.10
2024-03-15T13:15:53.450Z,17.20
2024-03-15T13:18:27.927Z,17.20
2024-03-15T13:21:02.504Z,17.20
2024-03-15T13:23:34.305Z,16.80
2024-03-15T13:26:07.096Z,15.90
2024-03-15T13:28:38.221Z,14.90
2024-03-15T13:31:09.131Z,14.30
2024-03-15T13:33:42.205Z,13.90
2024-03-15T13:36:13.986Z,13.50
2024-03-15T13:38:45.666Z,13.30
2024-03-15T13:41:16.674Z,13.10
2024-03-15T13:43:47.638Z,12.80
2024-03-15T13:46:19.056Z,12.60
2024-03-15T13:48:51.557Z,12.40
2024-03-15T13:51:24.846Z,12.30
2024-03-15T13:53:54.678Z,12.20
2024-03-15T13:56:24.436Z,12.10
2024-03-15T13:58:55.025Z,11.90
2024-03-15T14:01:26.626Z,11.80
2024-03-15T14:04:00.712Z,11.80
2024-03-15T14:06:34.214Z,11.80
2024-03-15T14:09:04.731Z,11.70
2024-03-15T14:11:34.808Z,11.50
2024-03-15T14:14:04.813Z,11.40
2024-03-15T14:16:34.811Z,11.30
2024-03-15T14:19:05.616Z,11.10
2024-03-15T14:21:35.724Z,11.00
2024-03-15T14:24:06.324Z,10.90
2024-03-15T14:26:39.605Z,10.80
2024-03-15T14:29:11.591Z,10.60
2024-03-15T14:31:42.174Z,10.40
2024-03-15T14:34:13.252Z,10.20
2024-03-15T14:36:44.339Z,10.00
2024-03-15T14:39:16.222Z,10.00
2024-03-15T14:41:46.951Z,9.90
2024-03-15T14:44:17.458Z,10.00
2024-03-15T14:46:49.368Z,10.00
2024-03-15T14:49:19.440Z,10.00
2024-03-15T14:51:49.466Z,9.90
2024-03-15T14:54:19.829Z,9.80
2024-03-15T14:56:49.777Z,9.60
2024-03-15T14:59:19.408Z,9.50
2024-03-15T15:01:49.130Z,9.30
2024-03-15T15:04:19.591Z,9.10
2024-03-15T15:06:50.531Z,9.00
2024-03-15T15:09:20.561Z,8.90
2024-03-15T15:11:49.981Z,8.80
2024-03-15T15:14:19.226Z,8.80
2024-03-15T15:16:49.184Z,8.80
2024-03-15T15:19:23.111Z,8.70
2024-03-15T15:21:52.800Z,8.70
2024-03-15T15:24:22.484Z,8.60
2024-03-15T15:26:52.966Z,8.60
2024-03-15T15:29:22.300Z,8.60
2024-03-15T15:31:51.708Z,8.60
2024-03-15T15:34:25.033Z,8.70
2024-03-15T15:36:55.078Z,8.70
2024-03-15T15:39:24.771Z,8.70
2024-03-15T15:41:56.401Z,8.70
2024-03-15T15:44:26.815Z,8.80
2024-03-15T15:47:04.154Z,8.80
2024-03-15T15:49:36.095Z,8.80
2024-03-15T15:52:11.414Z,8.80
2024-03-15T15:54:42.565Z,8.90
2024-03-15T15:57:15.017Z,8.90
2024-03-15T15:59:46.705Z,9.00
2024-03-15T16:02:17.930Z,9.10
2024-03-15T16:04:48.761Z,9.10
2024-03-15T16:07:22.655Z,9.10
2024-03-15T16:09:52.746Z,9.00
2024-03-15T16:12:23.301Z,9.00
2024-03-15T16:14:55.250Z,9.00
2024-03-15T16:17:30.081Z,8.90
2024-03-15T16:20:00.223Z,8.90
2024-03-15T16:22:30.450Z,8.90
2024-03-15T16:25:00.967Z,8.90
2024-03-15T16:27:31.081Z,8.90
2024-03-15T16:30:04.648Z,9.00
2024-03-15T16:32:35.887Z,9.00
2024-03-15T16:35:09.132Z,9.10
2024-03-15T16:37:39.666Z,9.00
2024-03-15T16:40:10.413Z,9.00
2024-03-15T16:42:40.384Z,9.00
2024-03-15T16:45:10.582Z,8.90
2024-03-15T16:47:43.477Z,8.80
2024-03-15T16:50:13.189Z,8.80
2024-03-15T16:52:42.720Z,8.70
2024-03-15T16:55:14.892Z,8.60
2024-03-15T16:57:43.726Z,8.50
2024-03-15T17:00:18.087Z,8.50
2024-03-15T17:02:50.456Z,8.50
2024-03-15T17:05:22.812Z,8.40
2024-03-15T17:07:53.400Z,8.40
2024-03-15T17:10:23.251Z,8.40
2024-03-15T17:12:53.364Z,8.40
2024-03-15T17:15:27.930Z,8.40
2024-03-15T17:17:57.572Z,8.30
2024-03-15T17:20:26.526Z,8.40
2024-03-15T17:22:55.632Z,8.30
2024-03-15T17:25:24.955Z,8.30
2024-03-15T17:27:54.071Z,8.30
2024-03-15T17:30:23.121Z,8.30
2024-03-15T17:32:52.185Z,8.40
2024-03-15T17:35:20.319Z,8.30
2024-03-15T17:37:49.171Z,8.30
2024-03-15T17:40:17.614Z,8.30
2024-03-15T17:42:45.710Z,8.30
2024-03-15T17:45:16.540Z,8.30
2024-03-15T17:47:45.267Z,8.30
2024-03-15T17:50:13.877Z,8.30
2024-03-15T17:52:44.218Z,8.30
2024-03-15T17:55:12.409Z,8.30
2024-03-15T17:57:40.917Z,8.30
2024-03-15T18:00:14.265Z,8.30
2024-03-15T18:02:42.650Z,8.30
2024-03-15T18:05:12.492Z,8.30
2024-03-15T18:07:41.346Z,8.30
2024-03-15T18:10:13.961Z,8.30
2024-03-15T18:12:43.012Z,8.30
2024-03-15T18:15:11.818Z,8.30
2024-03-15T18:17:41.103Z,8.30
2024-03-15T18:20:10.563Z,8.30
2024-03-15T18:22:39.252Z,8.30
2024-03-15T18:25:09.897Z,8.30
2024-03-15T18:27:37.675Z,8.30
2024-03-15T18:30:06.031Z,8.30
2024-03-15T18:32:35.051Z,8.30
2024-03-15T18:35:02.831Z,8.30
2024-03-15T18:37:30.552Z,8.30
2024-03-15T18:39:59.288Z,8.30
2024-03-15T18:42:28.155Z,8.20
2024-03-15T18:44:58.095Z,8.20
2024-03-15T18:47:27.667Z,8.20
2024-03-15T18:49:55.306Z,8.20
2024-03-15T18:52:23.302Z,8.20
2024-03-15T18:54:54.200Z,8.20
2024-03-15T18:57:24.393Z,8.20
2024-03-15T19:00:11.885Z,8.10
2024-03-15T19:02:40.351Z,8.20
2024-03-15T19:05:08.457Z,8.10
2024-03-15T19:07:37.429Z,8.10
2024-03-15T19:10:09.382Z,8.10
2024-03-15T19:12:38.172Z,8.10
2024-03-15T19:15:09.483Z,8.10
2024-03-15T19:17:37.257Z,8.10
2024-03-15T19:20:07.444Z,8.10
2024-03-15T19:22:35.184Z,8.00
2024-03-15T19:25:03.387Z,8.10
2024-03-15T19:27:30.974Z,8.00
2024-03-15T19:29:58.524Z,7.90
2024-03-15T19:32:29.153Z,8.00
2024-03-15T19:34:56.887Z,7.90
2024-03-15T19:37:24.511Z,7.80
2024-03-15T19:39:56.079Z,7.70
2024-03-15T19:42:26.232Z,7.60
2024-03-15T19:44:54.112Z,7.60
2024-03-15T19:47:22.790Z,7.70
2024-03-15T19:49:50.750Z,7.60
2024-03-15T19:52:18.865Z,7.70
2024-03-15T19:54:47.445Z,7.70
2024-03-15T19:57:16.555Z,7.80
2024-03-15T19:59:44.821Z,7.80
2024-03-15T20:02:12.708Z,7.80
2024-03-15T20:04:40.572Z,7.80
2024-03-15T20:07:08.612Z,7.80
2024-03-15T20:09:36.731Z,7.70
2024-03-15T20:12:04.903Z,7.70
2024-03-15T20:14:32.437Z,7.70
2024-03-15T20:17:00.259Z,7.70
2024-03-15T20:19:30.871Z,7.70
2024-03-15T20:21:58.742Z,7.70
2024-03-15T20:24:26.489Z,7.60
2024-03-15T20:26:53.934Z,7.50
2024-03-15T20:29:23.917Z,7.50
2024-03-15T20:31:51.741Z,7.50
2024-03-15T20:34:19.968Z,7.40
2024-03-15T20:36:48.283Z,7.30
2024-03-15T20:39:20.327Z,7.30
2024-03-15T20:41:48.955Z,7.30
2024-03-15T20:44:16.788Z,7.20
2024-03-15T20:46:44.588Z,7.20
2024-03-15T20:49:13.080Z,7.20
2024-03-15T20:51:41.949Z,7.30
2024-03-15T20:54:09.751Z,7.30
2024-03-15T20:56:37.480Z,7.30
2024-03-15T20:59:05.731Z,7.40
2024-03-15T21:01:33.538Z,7.50
2024-03-15T21:04:02.060Z,7.50
2024-03-15T21:06:31.681Z,7.60
2024-03-15T21:09:06.822Z,7.60
2024-03-15T21:11:34.581Z,7.70
2024-03-15T21:14:02.873Z,7.60
2024-03-15T21:16:30.486Z,7.50
2024-03-15T21:18:58.242Z,7.40
2024-03-15T21:21:26.795Z,7.40
2024-03-15T21:23:54.935Z,7.40
2024-03-15T21:26:22.877Z,7.30
2024-03-15T21:28:54.522Z,7.20
2024-03-15T21:31:22.618Z,7.10
2024-03-15T21:33:50.728Z,7.00
2024-03-15T21:36:19.584Z,7.00
2024-03-15T21:38:47.342Z,6.90
2024-03-15T21:41:19.157Z,6.90
2024-03-15T21:43:47.022Z,6.80
2024-03-15T21:46:22.931Z,6.80
2024-03-15T21:48:50.780Z,6.80
2024-03-15T21:51:19.168Z,6.80
2024-03-15T21:53:47.404Z,6.80
2024-03-15T21:56:17.158Z,6.70
2024-03-15T21:58:44.807Z,6.70
2024-03-15T22:01:13.872Z,6.70
2024-03-15T22:03:41.772Z,6.60
2024-03-15T22:06:10.628Z,6.60
2024-03-15T22:08:38.561Z,6.50
2024-03-15T22:11:09.233Z,6.40
2024-03-15T22:13:36.979Z,6.40
2024-03-15T22:16:04.875Z,6.40
2024-03-15T22:18:32.776Z,6.40
2024-03-15T22:21:00.504Z,6.30
2024-03-15T22:23:28.210Z,6.30
2024-03-15T22:25:57.758Z,6.30
2024-03-15T22:28:26.287Z,6.30
2024-03-15T22:30:54.040Z,6.30
2024-03-15T22:33:22.100Z,6.30
2024-03-15T22:35:52.956Z,6.30
2024-03-15T22:38:20.575Z,6.30
2024-03-15T22:40:49.883Z,6.30
2024-03-15T22:43:17.645Z,6.40
2024-03-15T22:45:48.350Z,6.40
2024-03-15T22:48:16.340Z,6.40
2024-03-15T22:50:44.990Z,6.50
2024-03-15T22:53:13.904Z,6.50
2024-03-15T22:55:45.653Z,6.50
2024-03-15T22:58:13.311Z,6.50
2024-03-15T23:00:47.006Z,6.50
2024-03-15T23:03:15.990Z,6.60
2024-03-15T23:05:45.244Z,6.60
2024-03-15T23:08:14.233Z,6.60
2024-03-15T23:10:45.230Z,6.50
2024-03-15T23:13:15.649Z,6.60
2024-03-15T23:15:43.480Z,6.60
2024-03-15T23:18:11.869Z,6.60
2024-03-15T23:20:40.468Z,6.60
2024-03-15T23:23:08.221Z,6.60
2024-03-15T23:25:38.174Z,6.70
2024-03-15T23:28:06.483Z,6.70
2024-03-15T23:30:35.766Z,6.60
2024-03-15T23:33:07.473Z,6.60
2024-03-15T23:35:36.798Z,6.60
2024-03-15T23:38:08.532Z,6.50
2024-03-15T23:40:39.163Z,6.50
2024-03-15T23:43:09.813Z,6.50
2024-03-15T23:45:37.812Z,6.40
2024-03-15T23:48:07.661Z,6.30
2024-03-15T23:50:35.356Z,6.30
2024-03-15T23:53:03.440Z,6.20
2024-03-15T23:55:30.980Z,6.00
2024-03-15T23:57:58.766Z,5.90
